Time;durP1;ratioP1;P1;durP2;ratioP2;P2;SDS_P1;SDS_P2;PMS_P1;PMS_P2;Temp;Humidity;BMP_temperature;BMP_pressure;BME280_temperature;BME280_humidity;BME280_pressure;Samples;Min_cycle;Max_cycle;Signal;HPM_P1;HPM_P2
2022/06/23 00:01:50;;;;;;;7.43;6.73;;;;;;;17.47;71.13;101104.81;5060782;28;20794;-66
2022/06/23 00:04:18;;;;;;;7.70;6.40;;;;;;;17.34;71.56;101106.72;5060344;28;20431;-66
2022/06/23 00:06:47;;;;;;;7.63;6.73;;;;;;;18.01;68.97;101108.50;5059604;28;20652;-67
2022/06/23 00:09:46;;;;;;;7.57;6.60;;;;;;;17.43;70.68;101096.97;5060017;28;20526;-67
2022/06/23 00:12:17;;;;;;;8.03;7.23;;;;;;;17.03;72.96;101102.72;5059641;28;20416;-67
2022/06/23 00:14:46;;;;;;;8.73;7.63;;;;;;;16.83;74.05;101102.03;5059742;28;20471;-66
2022/06/23 00:17:26;;;;;;;8.20;7.27;;;;;;;17.98;70.56;101104.13;5059678;28;20662;-66
2022/06/23 00:19:53;;;;;;;7.80;7.00;;;;;;;17.12;72.29;101106.13;5060269;28;20490;-66
2022/06/23 00:22:22;;;;;;;7.27;6.73;;;;;;;17.20;73.62;101105.16;5060266;28;20420;-67
2022/06/23 00:24:48;;;;;;;8.30;7.60;;;;;;;17.38;72.98;101110.19;5059041;28;20900;-67
2022/06/23 00:27:15;;;;;;;8.60;7.80;;;;;;;17.92;71.30;101111.28;5060860;28;20518;-67
2022/06/23 00:29:44;;;;;;;11.90;7.17;;;;;;;17.89;71.16;101108.63;5059193;28;20185;-67
2022/06/23 00:32:10;;;;;;;8.80;8.00;;;;;;;17.73;72.03;101113.28;5059787;28;20788;-66
2022/06/23 00:34:36;;;;;;;8.57;7.77;;;;;;;17.17;73.77;101117.50;5059083;28;20432;-67
2022/06/23 00:37:10;;;;;;;8.10;7.33;;;;;;;16.92;75.54;101108.13;5059318;28;20424;-66
2022/06/23 00:39:58;;;;;;;9.03;8.17;;;;;;;17.00;76.12;101112.41;5059927;28;20771;-66
2022/06/23 00:42:55;;;;;;;10.63;8.37;;;;;;;17.55;73.61;101102.09;5059132;28;20402;-66
2022/06/23 00:45:31;;;;;;;8.70;8.00;;;;;;;17.41;74.00;101107.53;5059714;28;20506;-66
2022/06/23 00:48:09;;;;;;;9.97;8.40;;;;;;;17.08;75.36;101107.06;5058556;28;20574;-66
2022/06/23 00:50:39;;;;;;;9.90;8.90;;;;;;;17.24;74.72;101117.41;5058768;28;20410;-67
2022/06/23 00:53:10;;;;;;;9.17;8.27;;;;;;;17.91;72.25;101118.25;5059670;28;20395;-67
2022/06/23 00:55:50;;;;;;;9.07;8.17;;;;;;;17.56;74.20;101109.09;5058997;28;20419;-66
2022/06/23 00:58:22;;;;;;;11.67;8.40;;;;;;;17.75;73.29;101111.47;5059240;28;20416;-66
2022/06/23 01:00:50;;;;;;;8.90;8.10;;;;;;;17.14;75.12;101117.53;5059192;28;20521;-66
2022/06/23 01:03:22;;;;;;;8.97;8.17;;;;;;;17.68;73.62;101113.31;5058862;28;20465;-66
2022/06/23 01:05:52;;;;;;;10.40;8.47;;;;;;;18.02;71.43;101112.84;5058469;28;20404;-67
2022/06/23 01:08:35;;;;;;;8.97;8.17;;;;;;;17.61;72.17;101112.53;5059220;28;20517;-66
2022/06/23 01:11:02;;;;;;;8.40;7.70;;;;;;;17.11;74.62;101121.97;5058867;28;20404;-66
2022/06/23 01:13:48;;;;;;;9.80;8.63;;;;;;;17.94;72.90;101120.03;5057868;28;20682;-67
2022/06/23 01:16:22;;;;;;;8.90;8.20;;;;;;;17.45;72.86;101122.41;5044721;28;20723;-65
2022/06/23 01:18:49;;;;;;;9.43;8.63;;;;;;;17.53;72.76;101118.81;5058305;28;20395;-66
2022/06/23 01:21:20;;;;;;;8.70;7.80;;;;;;;16.86;75.76;101121.31;5058660;28;20431;-66
2022/06/23 01:24:14;;;;;;;9.00;8.13;;;;;;;16.84;76.82;101116.94;5058306;28;20438;-66
2022/06/23 01:27:10;;;;;;;9.07;8.17;;;;;;;17.37;74.47;101113.72;5058730;28;20864;-66
2022/06/23 01:29:52;;;;;;;9.73;8.80;;;;;;;16.86;75.75;101116.94;5058503;28;20420;-66
2022/06/23 01:32:34;;;;;;;8.67;7.93;;;;;;;16.69;77.54;101122.34;5057836;28;20438;-66
2022/06/23 01:35:12;;;;;;;9.13;8.33;;;;;;;16.65;77.93;101118.88;5059206;28;20402;-66
2022/06/23 01:37:46;;;;;;;8.70;7.90;;;;;;;16.82;77.94;101113.44;5057644;28;20398;-67
2022/06/23 01:40:17;;;;;;;9.20;8.40;;;;;;;16.61;78.40;101118.91;5058086;28;20386;-67
2022/06/23 01:42:50;;;;;;;8.17;7.47;;;;;;;16.60;78.51;101112.78;5058464;28;20792;-66
2022/06/23 01:45:38;;;;;;;10.07;8.47;;;;;;;16.58;78.88;101116.31;5058070;28;20391;-66
2022/06/23 01:48:06;;;;;;;11.87;8.40;;;;;;;16.81;78.65;101114.31;5038080;28;20451;-66
2022/06/23 01:50:51;;;;;;;8.60;7.80;;;;;;;16.62;79.22;101123.31;5056368;28;20411;-66
2022/06/23 01:53:16;;;;;;;10.80;8.47;;;;;;;17.10;77.41;101123.72;5058275;28;20427;-65
2022/06/23 01:56:22;;;;;;;8.50;7.80;;;;;;;17.21;76.79;101126.25;5058346;28;20790;-66
2022/06/23 01:59:15;;;;;;;11.20;10.10;;;;;;;17.03;77.71;101119.41;5057699;28;20237;-66
2022/06/23 02:01:40;;;;;;;9.00;8.10;;;;;;;16.43;78.60;101123.47;5058479;28;20412;-65
2022/06/23 02:04:17;;;;;;;10.73;8.70;;;;;;;17.46;75.81;101125.94;5058016;28;20458;-66
2022/06/23 02:06:49;;;;;;;8.93;7.73;;;;;;;16.61;78.32;101126.81;5057294;28;20272;-68
2022/06/23 02:09:23;;;;;;;8.97;8.20;;;;;;;17.13;77.49;101133.31;5057943;28;20435;-67
2022/06/23 02:11:51;;;;;;;9.07;8.27;;;;;;;17.30;75.94;101130.50;5056781;28;20485;-66
2022/06/23 02:14:36;;;;;;;8.40;7.70;;;;;;;16.86;77.45;101129.19;5058105;28;20466;-66
2022/06/23 02:17:08;;;;;;;9.80;8.23;;;;;;;16.46;78.79;101133.94;5057694;28;20391;-66
2022/06/23 02:19:44;;;;;;;9.30;8.30;;;;;;;17.15;76.61;101132.44;5057976;28;20416;-66
2022/06/23 02:22:38;;;;;;;8.27;7.47;;;;;;;16.66;78.33;101140.81;5057443;28;20673;-66
2022/06/23 02:25:04;;;;;;;9.00;8.20;;;;;;;16.50;79.02;101143.56;5057024;28;20422;-66
2022/06/23 02:27:37;;;;;;;8.83;7.93;;;;;;;16.74;78.57;101143.38;5058307;28;20575;-67
2022/06/23 02:30:03;;;;;;;10.20;8.93;;;;;;;16.89;78.01;101143.25;5058027;28;20187;-66
2022/06/23 02:32:34;;;;;;;9.43;8.57;;;;;;;17.07;77.05;101150.09;5058054;28;20387;-66
2022/06/23 02:35:09;;;;;;;9.97;8.80;;;;;;;17.42;74.77;101147.94;5057531;28;20173;-66
2022/06/23 02:37:47;;;;;;;10.10;9.17;;;;;;;16.58;78.27;101148.78;5057326;28;20404;-66
2022/06/23 02:40:22;;;;;;;9.43;8.60;;;;;;;17.11;76.90;101149.16;5057565;28;20419;-66
2022/06/23 02:42:54;;;;;;;9.70;8.87;;;;;;;17.07;77.37;101157.13;5057773;28;20425;-66
2022/06/23 02:45:34;;;;;;;10.70;9.80;;;;;;;17.22;76.44;101150.81;5057317;28;20409;-66
2022/06/23 02:48:15;;;;;;;9.63;8.60;;;;;;;16.96;76.45;101154.59;5056841;28;20752;-66
2022/06/23 02:50:59;;;;;;;10.70;9.73;;;;;;;16.47;78.79;101161.16;5057520;28;20426;-65
2022/06/23 02:53:30;;;;;;;9.87;8.87;;;;;;;16.69;78.44;101164.47;5057364;28;20423;-66
2022/06/23 02:56:10;;;;;;;10.67;9.50;;;;;;;16.98;77.78;101158.06;5057616;28;20427;-67
2022/06/23 02:58:46;;;;;;;9.90;9.00;;;;;;;16.57;79.11;101154.06;5057658;28;20394;-66
2022/06/23 03:01:34;;;;;;;10.87;9.80;;;;;;;16.52;77.99;101156.75;5056358;28;20394;-65
2022/06/23 03:04:04;;;;;;;9.20;8.40;;;;;;;16.52;79.87;101151.47;5046916;28;20784;-66
2022/06/23 03:07:13;;;;;;;9.77;8.87;;;;;;;16.55;78.85;101158.44;5057755;28;20518;-67
2022/06/23 03:09:42;;;;;;;10.47;9.47;;;;;;;16.41;78.98;101159.47;4977229;28;20517;-68
2022/06/23 03:12:12;;;;;;;11.87;9.57;;;;;;;16.27;79.87;101161.31;5036761;28;20439;-67
2022/06/23 03:14:48;;;;;;;10.57;9.60;;;;;;;16.47;78.52;101151.50;5056159;28;20541;-66
2022/06/23 03:17:26;;;;;;;9.90;9.00;;;;;;;16.18;80.22;101154.34;5056713;28;20402;-66
2022/06/23 03:20:20;;;;;;;10.87;9.87;;;;;;;17.18;77.45;101147.31;5057299;28;20434;-65
2022/06/23 03:22:55;;;;;;;10.10;9.30;;;;;;;16.90;78.10;101147.66;5059213;28;20484;-66
2022/06/23 03:25:24;;;;;;;10.70;9.80;;;;;;;16.99;77.33;101154.56;5060352;28;20443;-66
2022/06/23 03:27:58;;;;;;;11.40;10.20;;;;;;;17.40;75.23;101150.59;5061323;28;20828;-66
2022/06/23 03:30:43;;;;;;;11.23;10.00;;;;;;;17.17;76.74;101151.75;5061185;28;20390;-67
2022/06/23 03:33:11;;;;;;;11.40;9.20;;;;;;;17.19;75.35;101150.84;5060987;28;20420;-66
2022/06/23 03:35:42;;;;;;;10.30;9.40;;;;;;;17.40;73.87;101149.72;5061037;28;20467;-66
2022/06/23 03:41:37;;;;;;;9.27;8.30;;;;;;;18.93;68.65;101136.88;5061424;28;20464;-66
2022/06/23 03:44:34;;;;;;;9.60;8.60;;;;;;;19.89;64.87;101125.25;5060366;28;20409;-66
2022/06/23 03:47:01;;;;;;;8.13;7.40;;;;;;;20.78;62.17;101127.50;5026099;28;20414;-66
2022/06/23 03:49:56;;;;;;;7.90;7.17;;;;;;;21.02;61.65;101127.72;5060128;28;20590;-66
2022/06/23 03:52:43;;;;;;;8.23;7.53;;;;;;;19.87;64.03;101132.31;5060862;28;20379;-68
2022/06/23 03:55:37;;;;;;;8.17;7.47;;;;;;;20.38;61.59;101119.66;5060567;28;20481;-67
2022/06/23 03:58:11;;;;;;;7.93;7.23;;;;;;;21.66;57.64;101124.13;5059993;28;20390;-67
2022/06/23 04:00:40;;;;;;;7.93;7.13;;;;;;;21.94;57.00;101117.97;5060559;28;20768;-66
2022/06/23 04:03:11;;;;;;;7.93;7.10;;;;;;;20.90;59.51;101123.63;5059735;28;20428;-67
2022/06/23 04:06:09;;;;;;;7.90;7.20;;;;;;;22.66;54.66;101112.06;5060150;28;20431;-67
2022/06/23 04:08:42;;;;;;;7.63;7.00;;;;;;;22.39;55.45;101104.13;5055863;28;20475;-66
2022/06/23 04:14:00;;;;;;;8.20;7.40;;;;;;;24.10;49.84;101104.03;5059644;28;20430;-67
2022/06/23 04:16:26;;;;;;;7.40;6.70;;;;;;;24.04;50.58;101111.34;5059797;28;20701;-66
2022/06/23 04:18:52;;;;;;;7.00;6.40;;;;;;;23.93;50.22;101118.03;5060380;28;20494;-68
2022/06/23 04:21:22;;;;;;;7.17;6.57;;;;;;;22.85;52.07;101122.91;5060415;28;20165;-66
2022/06/23 04:23:53;;;;;;;10.10;6.77;;;;;;;22.90;52.15;101123.63;5060364;28;20166;-66
2022/06/23 04:26:23;;;;;;;7.27;6.77;;;;;;;22.82;52.24;101123.88;5060180;28;20455;-68
2022/06/23 04:28:57;;;;;;;6.73;6.10;;;;;;;23.45;51.93;101131.38;5060091;28;20509;-66
2022/06/23 04:31:29;;;;;;;7.53;6.77;;;;;;;21.91;53.57;101136.66;5059470;28;20427;-66
2022/06/23 04:33:55;;;;;;;7.20;6.50;;;;;;;23.53;51.37;101137.28;5058747;28;20435;-67
2022/06/23 04:36:26;;;;;;;7.27;6.60;;;;;;;22.92;53.47;101137.75;5060635;28;20427;-66
2022/06/23 04:39:07;;;;;;;6.93;6.43;;;;;;;22.78;52.76;101132.03;5059906;28;20419;-66
2022/06/23 04:42:04;;;;;;;9.17;6.40;;;;;;;23.99;49.73;101136.41;5059970;28;20424;-67
2022/06/23 04:44:31;;;;;;;7.20;6.50;;;;;;;24.24;49.21;101133.63;5047495;28;20471;-67
2022/06/23 04:47:02;;;;;;;8.47;6.90;;;;;;;24.14;49.18;101143.81;5059040;28;20432;-67
2022/06/23 04:49:50;;;;;;;6.90;6.17;;;;;;;24.75;46.85;101142.19;5059852;28;20424;-67
2022/06/23 04:52:37;;;;;;;7.30;6.60;;;;;;;22.68;52.88;101150.09;5058097;28;20427;-66
2022/06/23 04:55:16;;;;;;;8.27;6.77;;;;;;;23.03;51.33;101148.84;5058963;28;20435;-66
2022/06/23 04:57:54;;;;;;;7.97;7.27;;;;;;;24.45;47.53;101144.31;5053781;28;20522;-66
2022/06/23 05:00:25;;;;;;;10.50;6.80;;;;;;;23.99;49.10;101147.06;5057090;28;20416;-66
2022/06/23 05:02:54;;;;;;;11.70;6.67;;;;;;;25.47;45.52;101135.44;5059125;28;20436;-67
2022/06/23 05:05:23;;;;;;;8.43;6.37;;;;;;;26.44;43.10;101143.25;5058129;28;20466;-66
2022/06/23 05:07:54;;;;;;;9.47;6.57;;;;;;;26.07;43.23;101147.75;5049822;28;20739;-67
2022/06/23 05:10:26;;;;;;;8.70;6.30;;;;;;;25.78;44.50;101158.00;5059308;28;20420;-67
2022/06/23 05:12:55;;;;;;;8.20;6.27;;;;;;;27.11;41.47;101148.72;5058376;28;20412;-66
2022/06/23 05:15:26;;;;;;;9.83;5.70;;;;;;;26.56;41.38;101155.09;5059186;28;20468;-67
2022/06/23 05:18:03;;;;;;;6.77;6.00;;;;;;;26.27;42.58;101165.47;5059304;28;20434;-68
2022/06/23 05:20:57;;;;;;;7.83;5.43;;;;;;;25.98;43.25;101169.53;5059268;28;20408;-66
2022/06/23 05:23:41;;;;;;;8.17;5.70;;;;;;;27.10;40.85;101159.50;5058879;28;20428;-66
2022/06/23 05:26:14;;;;;;;7.10;6.40;;;;;;;26.52;42.14;101165.13;5058490;28;20662;-67
2022/06/23 05:28:41;;;;;;;8.80;6.07;;;;;;;27.65;40.06;101167.25;5059176;28;20455;-67
2022/06/23 05:31:09;;;;;;;6.40;5.73;;;;;;;27.21;40.46;101163.34;5058833;28;20452;-67
2022/06/23 05:33:37;;;;;;;6.43;5.83;;;;;;;26.91;40.94;101157.81;5058036;28;20567;-67
2022/06/23 05:36:06;;;;;;;11.00;6.07;;;;;;;25.16;44.77;101159.97;5058397;28;20419;-66
2022/06/23 05:38:46;;;;;;;11.07;6.00;;;;;;;26.67;41.55;101157.22;5058418;28;20456;-67
2022/06/23 05:41:17;;;;;;;7.57;5.70;;;;;;;27.14;41.15;101161.94;5058872;28;20427;-67
2022/06/23 05:43:42;;;;;;;10.43;6.03;;;;;;;26.47;41.64;101164.47;5057669;28;20695;-68
2022/06/23 05:46:17;;;;;;;10.30;6.20;;;;;;;26.50;42.39;101158.13;5058494;28;20431;-66
2022/06/23 05:48:43;;;;;;;8.20;6.30;;;;;;;26.97;41.08;101159.31;5059157;28;20201;-66
2022/06/23 05:51:16;;;;;;;6.20;5.60;;;;;;;27.96;38.37;101154.81;5057433;28;20892;-68
2022/06/23 05:53:48;;;;;;;6.63;5.80;;;;;;;26.18;42.49;101164.13;5057242;28;20782;-67
2022/06/23 05:56:19;;;;;;;9.07;6.03;;;;;;;26.02;42.28;101156.00;5058313;28;20423;-67
2022/06/23 05:59:15;;;;;;;12.87;5.87;;;;;;;28.08;39.24;101147.03;5058050;28;20469;-67
2022/06/23 06:01:43;;;;;;;12.03;6.60;;;;;;;27.78;39.12;101148.69;5024437;28;20452;-66
2022/06/23 06:04:39;;;;;;;6.90;5.93;;;;;;;29.67;35.93;101151.72;5057699;28;20452;-67
2022/06/23 06:07:04;;;;;;;11.27;6.03;;;;;;;29.36;36.44;101152.81;5058134;28;20447;-66
2022/06/23 06:09:35;;;;;;;7.97;6.40;;;;;;;28.75;37.10;101152.94;5058060;28;20519;-66
2022/06/23 06:12:04;;;;;;;8.77;5.43;;;;;;;28.88;36.99;101151.25;5053336;28;20459;-66
2022/06/23 06:14:36;;;;;;;7.33;5.03;;;;;;;28.43;36.97;101154.84;5046451;28;20534;-66
2022/06/23 06:17:02;;;;;;;5.80;5.20;;;;;;;29.37;35.94;101149.19;5057135;28;20432;-68
2022/06/23 06:19:29;;;;;;;7.67;5.27;;;;;;;28.61;37.32;101150.22;5058172;28;20407;-68
2022/06/23 06:21:57;;;;;;;5.60;5.10;;;;;;;28.34;37.22;101154.44;5057466;28;20524;-68
2022/06/23 06:24:31;;;;;;;8.07;5.60;;;;;;;27.10;39.25;101151.50;5056052;28;20864;-68
2022/06/23 06:26:58;;;;;;;5.50;5.00;;;;;;;27.85;37.69;101150.06;5056956;28;20462;-68
2022/06/23 06:29:26;;;;;;;6.70;5.37;;;;;;;29.39;35.82;101148.13;5057169;28;20428;-67
2022/06/23 06:31:58;;;;;;;6.80;5.47;;;;;;;28.16;37.44;101142.13;5056858;28;20490;-67
2022/06/23 06:34:29;;;;;;;6.90;6.20;;;;;;;29.28;35.69;101134.53;5056971;28;20437;-66
2022/06/23 06:36:54;;;;;;;5.50;5.00;;;;;;;29.01;36.08;101132.56;5058122;28;20738;-67
2022/06/23 06:39:24;;;;;;;6.47;5.27;;;;;;;29.10;36.77;101135.63;5057470;28;20502;-67
2022/06/23 06:42:14;;;;;;;10.17;5.93;;;;;;;28.26;37.78;101145.13;5057738;28;20388;-65
2022/06/23 06:44:46;;;;;;;9.67;5.77;;;;;;;30.29;34.45;101136.94;5043682;28;20829;-66
2022/06/23 06:47:26;;;;;;;7.67;5.37;;;;;;;29.68;35.76;101139.16;5057714;28;20691;-67
2022/06/23 06:49:58;;;;;;;7.23;5.53;;;;;;;30.20;34.74;101133.06;5057982;28;20598;-67
2022/06/23 06:52:24;;;;;;;8.23;6.03;;;;;;;30.77;33.81;101132.84;5057459;28;20703;-67
2022/06/23 06:55:05;;;;;;;8.20;6.20;;;;;;;28.39;37.42;101143.44;5057728;28;20412;-68
2022/06/23 06:57:37;;;;;;;8.33;6.10;;;;;;;29.48;36.03;101138.59;5058697;28;20416;-67
2022/06/23 07:00:08;;;;;;;8.60;5.40;;;;;;;28.52;37.33;101139.09;5061149;28;20428;-66
2022/06/23 07:02:46;;;;;;;6.83;6.10;;;;;;;28.47;38.08;101141.16;5061492;28;20466;-67
2022/06/23 07:05:40;;;;;;;7.90;6.10;;;;;;;29.69;36.08;101138.22;5061077;28;20434;-68
2022/06/23 07:08:37;;;;;;;6.70;6.00;;;;;;;28.82;37.28;101138.22;5061743;28;20943;-66
2022/06/23 07:11:23;;;;;;;7.67;5.77;;;;;;;27.45;38.57;101143.38;5049252;28;20432;-68
2022/06/23 07:14:05;;;;;;;6.33;5.43;;;;;;;29.00;36.59;101130.00;5060106;28;20423;-68
2022/06/23 07:16:43;;;;;;;7.60;5.70;;;;;;;29.21;36.50;101134.03;5058080;28;20702;-68
2022/06/23 07:19:25;;;;;;;7.93;5.30;;;;;;;27.47;39.48;101153.06;5053290;28;20443;-68
2022/06/23 07:22:09;;;;;;;5.87;5.17;;;;;;;29.18;36.79;101133.34;5060129;28;20428;-66
2022/06/23 07:24:43;;;;;;;7.70;5.80;;;;;;;31.13;33.34;101136.66;5059185;28;20455;-67
2022/06/23 07:27:23;;;;;;;7.23;5.47;;;;;;;30.49;33.94;101142.84;5059923;28;20502;-67
2022/06/23 07:30:11;;;;;;;9.50;5.70;;;;;;;31.31;32.78;101131.78;5061183;28;20843;-66
2022/06/23 07:32:49;;;;;;;6.90;5.23;;;;;;;29.99;34.99;101140.72;5059623;28;20461;-67
2022/06/23 07:35:26;;;;;;;5.60;5.00;;;;;;;30.95;33.88;101139.66;5060719;28;20420;-67
2022/06/23 07:38:14;;;;;;;6.47;5.90;;;;;;;28.49;37.01;101141.94;5060729;28;20427;-67
2022/06/23 07:41:01;;;;;;;7.23;5.63;;;;;;;29.16;36.85;101128.06;5060029;28;20408;-67
2022/06/23 07:43:31;;;;;;;5.83;5.27;;;;;;;31.11;33.63;101138.59;5060118;28;20510;-67
2022/06/23 07:45:58;;;;;;;5.80;5.20;;;;;;;29.55;34.99;101148.00;5060967;28;20404;-67
2022/06/23 07:48:26;;;;;;;6.57;5.87;;;;;;;30.06;35.30;101144.72;5060611;28;20499;-67
2022/06/23 07:50:51;;;;;;;5.83;5.10;;;;;;;32.53;31.38;101145.25;5060015;28;20428;-67
2022/06/23 07:53:20;;;;;;;8.37;5.73;;;;;;;29.43;35.74;101150.59;5060716;28;20510;-67
2022/06/23 07:55:47;;;;;;;6.97;5.83;;;;;;;29.26;36.18;101149.84;5060769;28;20398;-66
2022/06/23 07:58:15;;;;;;;9.27;5.53;;;;;;;29.53;36.34;101147.25;5061164;28;20412;-65
2022/06/23 08:00:43;;;;;;;5.93;5.20;;;;;;;31.10;33.35;101147.66;5060328;28;20687;-66
2022/06/23 08:03:18;;;;;;;7.37;4.77;;;;;;;31.34;32.76;101148.59;5060328;28;20437;-66
2022/06/23 08:05:51;;;;;;;5.33;4.83;;;;;;;30.94;34.20;101150.53;5059745;28;20424;-65
2022/06/23 08:08:20;;;;;;;5.13;4.70;;;;;;;31.66;32.13;101152.63;5060231;28;20487;-66
2022/06/23 08:10:47;;;;;;;6.67;4.83;;;;;;;30.23;34.99;101150.81;5060042;28;20412;-67
2022/06/23 08:13:21;;;;;;;5.10;4.60;;;;;;;30.54;34.09;101146.94;5058456;28;20424;-66
2022/06/23 08:18:46;;;;;;;7.60;5.10;;;;;;;31.23;33.00;101156.59;5008404;28;20417;-68
2022/06/23 08:21:15;;;;;;;7.73;5.10;;;;;;;30.75;33.60;101151.81;5039833;28;20650;-70
2022/06/23 08:23:56;;;;;;;7.27;5.37;;;;;;;30.40;34.38;101158.63;5039294;28;20416;-69
2022/06/23 08:26:22;;;;;;;5.20;4.80;;;;;;;30.79;34.04;101139.84;5039578;28;20494;-70
2022/06/23 08:28:50;;;;;;;6.33;4.97;;;;;;;32.46;31.43;101140.44;5048284;28;20567;-69
2022/06/23 08:31:16;;;;;;;5.37;4.70;;;;;;;31.76;32.15;101134.81;5055062;28;20877;-69
2022/06/23 08:33:41;;;;;;;7.13;5.40;;;;;;;32.38;30.70;101132.91;5044715;28;20424;-69
2022/06/23 08:36:12;;;;;;;7.27;5.53;;;;;;;33.19;30.06;101131.13;5057435;28;20178;-69
2022/06/23 08:39:01;;;;;;;5.77;4.70;;;;;;;30.35;34.18;101131.16;5051279;28;20264;-67
2022/06/23 08:41:41;;;;;;;7.70;5.13;;;;;;;32.86;30.68;101126.56;5057284;28;20428;-68
2022/06/23 08:44:32;;;;;;;6.50;5.27;;;;;;;32.88;31.02;101120.06;5058531;28;20434;-69
2022/06/23 08:47:05;;;;;;;8.30;5.27;;;;;;;34.49;28.05;101116.91;5052646;28;20452;-67
2022/06/23 08:49:41;;;;;;;6.90;5.00;;;;;;;31.58;32.53;101127.09;5044298;28;20427;-68
2022/06/23 08:52:39;;;;;;;9.03;5.00;;;;;;;32.62;31.58;101110.41;5068177;28;20456;-68
2022/06/23 08:55:20;;;;;;;5.83;5.20;;;;;;;31.42;32.94;101123.78;5058471;28;20492;-67
2022/06/23 08:57:49;;;;;;;6.60;4.87;;;;;;;32.82;30.74;101117.81;5071597;28;20529;-66
2022/06/23 09:00:29;;;;;;;7.40;4.93;;;;;;;33.32;29.28;101116.66;5058904;28;20530;-66
2022/06/23 09:03:01;;;;;;;5.70;5.20;;;;;;;31.62;31.93;101132.28;5048104;28;20439;-68
2022/06/23 09:05:48;;;;;;;9.93;4.90;;;;;;;30.98;33.13;101123.28;5049497;28;20474;-67
2022/06/23 09:08:25;;;;;;;5.57;4.60;;;;;;;31.62;32.44;101108.03;5055065;28;20557;-67
2022/06/23 09:11:11;;;;;;;7.03;5.10;;;;;;;31.89;31.37;101115.88;5053116;28;20461;-68
2022/06/23 09:13:58;;;;;;;5.47;4.80;;;;;;;32.70;29.54;101116.06;5056618;28;20505;-66
2022/06/23 09:17:07;;;;;;;5.00;4.60;;;;;;;33.20;28.73;101111.19;5058942;28;20436;-67
2022/06/23 09:19:46;;;;;;;5.73;5.13;;;;;;;32.89;29.19;101112.81;5041817;28;20436;-67
2022/06/23 09:22:26;;;;;;;8.17;5.13;;;;;;;33.19;28.94;101108.63;5042734;28;20507;-67
2022/06/23 09:25:10;;;;;;;6.93;4.83;;;;;;;33.97;28.13;101111.34;5056127;28;20526;-67
2022/06/23 09:28:12;;;;;;;15.77;5.90;;;;;;;33.44;29.04;101110.25;5049703;28;20471;-68
2022/06/23 09:30:46;;;;;;;9.17;5.57;;;;;;;33.36;27.89;101107.31;5053295;28;20424;-67
2022/06/23 09:33:20;;;;;;;5.90;5.30;;;;;;;30.44;31.45;101110.84;5049435;28;20705;-67
2022/06/23 09:35:48;;;;;;;6.17;5.00;;;;;;;31.67;29.82;101098.63;5048812;28;20459;-66
2022/06/23 09:38:35;;;;;;;7.67;5.23;;;;;;;33.20;27.93;101095.00;5050244;28;20532;-66
2022/06/23 09:41:22;;;;;;;7.40;5.03;;;;;;;32.52;29.32;101099.47;5052025;28;20468;-66
2022/06/23 09:43:57;;;;;;;5.40;4.90;;;;;;;33.64;27.85;101091.50;5052504;28;20420;-66
2022/06/23 09:46:38;;;;;;;4.77;4.37;;;;;;;30.51;30.43;101097.84;5048155;28;20443;-68
2022/06/23 09:49:17;;;;;;;11.00;5.20;;;;;;;31.01;30.94;101092.56;5038406;28;20730;-68
2022/06/23 09:52:08;;;;;;;6.60;5.10;;;;;;;33.05;29.06;101078.19;5056832;28;20486;-69
2022/06/23 09:54:41;;;;;;;5.10;4.60;;;;;;;32.50;28.53;101082.53;5046072;28;20441;-67
2022/06/23 09:57:42;;;;;;;4.70;4.30;;;;;;;31.15;30.11;101092.50;5038685;28;20812;-67
2022/06/23 10:00:19;;;;;;;5.57;4.70;;;;;;;30.48;30.98;101093.53;5046067;28;20416;-67
2022/06/23 10:03:12;;;;;;;6.97;4.90;;;;;;;32.50;29.03;101087.94;5046566;28;20690;-66
2022/06/23 10:05:41;;;;;;;9.10;4.40;;;;;;;33.30;27.55;101086.19;5055099;28;20534;-66
2022/06/23 10:08:13;;;;;;;5.00;4.60;;;;;;;33.09;27.03;101076.09;5056275;28;20468;-68
2022/06/23 10:10:48;;;;;;;5.10;4.60;;;;;;;34.02;25.40;101079.38;5058017;28;20458;-67
2022/06/23 10:13:35;;;;;;;6.10;4.50;;;;;;;33.78;25.50;101083.16;5057682;28;20490;-67
2022/06/23 10:16:15;;;;;;;5.00;4.53;;;;;;;32.73;27.31;101078.94;5057225;28;20464;-67
2022/06/23 10:18:49;;;;;;;4.33;3.93;;;;;;;30.41;29.14;101076.94;5057740;28;20430;-66
2022/06/23 10:21:18;;;;;;;6.53;4.60;;;;;;;30.04;29.99;101082.16;5058191;28;20416;-66
2022/06/23 10:24:21;;;;;;;7.20;4.47;;;;;;;31.50;27.25;101069.31;5048228;28;20486;-66
2022/06/23 10:27:18;;;;;;;4.60;4.10;;;;;;;31.27;28.04;101073.72;5055403;28;20436;-66
2022/06/23 10:29:53;;;;;;;5.23;4.30;;;;;;;31.76;27.20;101056.66;5058003;28;20420;-66
2022/06/23 10:32:45;;;;;;;5.57;4.60;;;;;;;32.78;26.40;101056.94;5057086;28;20506;-65
2022/06/23 10:35:28;;;;;;;5.33;4.17;;;;;;;32.93;25.76;101056.72;5047844;28;20432;-65
2022/06/23 10:38:25;;;;;;;5.40;4.27;;;;;;;32.44;24.01;101059.59;5056153;28;20463;-65
2022/06/23 10:41:12;;;;;;;4.80;4.40;;;;;;;31.27;26.59;101066.50;5054241;28;20485;-64
2022/06/23 10:44:11;;;;;;;4.47;4.07;;;;;;;29.95;28.15;101055.03;5050031;28;20437;-64
2022/06/23 10:46:45;;;;;;;5.57;4.50;;;;;;;32.62;24.26;101041.06;5058008;28;20415;-66
2022/06/23 10:49:13;;;;;;;6.20;4.40;;;;;;;32.83;24.71;101045.81;5057228;28;20459;-67
2022/06/23 10:51:59;;;;;;;5.87;3.97;;;;;;;31.91;25.95;101042.00;5055860;28;20444;-66
2022/06/23 10:54:34;;;;;;;4.27;3.97;;;;;;;33.04;25.28;101045.91;5055471;28;20436;-66
2022/06/23 10:57:23;;;;;;;4.90;4.40;;;;;;;32.62;25.16;101032.13;5057279;28;20447;-67
2022/06/23 10:59:51;;;;;;;4.00;3.60;;;;;;;32.60;24.41;101028.69;5056458;28;20416;-67
2022/06/23 11:02:41;;;;;;;4.30;4.00;;;;;;;32.69;25.30;101030.66;5057489;28;20414;-68
2022/06/23 11:05:31;;;;;;;4.37;3.97;;;;;;;31.14;26.09;101031.50;5057079;28;20435;-66
2022/06/23 11:08:09;;;;;;;4.57;3.63;;;;;;;32.41;25.06;101041.78;5056851;28;20491;-69
2022/06/23 11:10:58;;;;;;;4.27;3.87;;;;;;;32.45;23.70;101030.75;5057604;28;20422;-69
2022/06/23 11:13:49;;;;;;;5.73;4.70;;;;;;;33.58;22.40;101023.47;5057211;28;20431;-70
2022/06/23 11:16:40;;;;;;;4.60;4.20;;;;;;;30.36;27.11;101035.19;5056857;28;20463;-69
2022/06/23 11:19:05;;;;;;;6.80;4.37;;;;;;;31.01;26.46;101036.91;5048093;28;20660;-69
2022/06/23 11:21:36;;;;;;;4.17;3.87;;;;;;;31.99;25.23;101036.03;5050575;28;20501;-66
2022/06/23 11:24:24;;;;;;;4.50;4.10;;;;;;;31.95;24.79;101025.56;5048250;28;20197;-67
2022/06/23 11:26:53;;;;;;;5.20;4.70;;;;;;;30.68;26.68;101026.72;5031081;28;20752;-66
2022/06/23 11:29:46;;;;;;;4.80;4.10;;;;;;;32.07;25.96;101016.56;5045363;28;20554;-66
2022/06/23 11:32:26;;;;;;;7.37;4.90;;;;;;;30.74;27.23;101034.34;5056441;28;20705;-67
2022/06/23 11:35:04;;;;;;;4.40;4.00;;;;;;;31.82;25.49;101031.91;5050311;28;20532;-68
2022/06/23 11:37:32;;;;;;;4.37;3.97;;;;;;;29.72;28.01;101028.69;5047819;28;20427;-65
2022/06/23 11:40:35;;;;;;;7.30;4.90;;;;;;;28.97;28.05;101025.47;5051714;28;20420;-66
2022/06/23 11:43:12;;;;;;;4.80;4.30;;;;;;;29.65;28.25;101023.84;5048037;28;20503;-67
2022/06/23 11:45:52;;;;;;;5.27;4.83;;;;;;;29.96;28.68;101019.09;5054351;28;20427;-65
2022/06/23 11:48:47;;;;;;;6.63;5.20;;;;;;;29.03;29.71;101023.28;5057401;28;20613;-66
2022/06/23 11:51:24;;;;;;;6.23;5.13;;;;;;;29.58;28.82;101028.75;5037995;28;20511;-66
2022/06/23 11:54:35;;;;;;;5.60;4.70;;;;;;;31.07;27.78;101011.41;5057345;28;20876;-67
2022/06/23 11:57:12;;;;;;;5.43;4.93;;;;;;;29.73;29.12;101016.13;5044318;28;20809;-66
2022/06/23 11:59:40;;;;;;;5.90;4.90;;;;;;;30.61;28.39;100999.38;5060250;28;20671;-66
2022/06/23 12:02:06;;;;;;;5.87;5.33;;;;;;;30.15;28.76;101006.13;5047780;28;20417;-67
2022/06/23 12:04:52;;;;;;;4.90;4.50;;;;;;;31.33;26.94;101000.53;5059947;28;20461;-66
2022/06/23 12:07:53;;;;;;;5.73;5.10;;;;;;;29.08;29.81;100998.84;5039689;28;20185;-67
2022/06/23 12:10:26;;;;;;;5.70;5.20;;;;;;;29.88;30.03;100990.91;5039056;28;20424;-66
2022/06/23 12:12:57;;;;;;;5.60;5.20;;;;;;;29.32;30.56;100983.00;5042507;28;20427;-66
2022/06/23 12:15:28;;;;;;;5.97;5.47;;;;;;;29.32;31.12;100983.00;5058990;28;20884;-66
2022/06/23 12:17:58;;;;;;;5.33;4.80;;;;;;;30.28;29.67;100984.59;5058879;28;20428;-65
2022/06/23 12:20:42;;;;;;;6.50;5.07;;;;;;;31.53;28.52;100974.81;5059690;28;20420;-67